createdAt,value
2024-05-09T00:00:22.514Z,85.7511
2024-05-09T00:01:18.931Z,85.8594
2024-05-09T00:02:19.790Z,85.7888
2024-05-09T00:03:22.305Z,85.7445
2024-05-09T00:04:22.234Z,85.9937
2024-05-09T00:05:24.431Z,85.8493
2024-05-09T00:06:24.375Z,85.7560
2024-05-09T00:07:26.423Z,85.7754
2024-05-09T00:08:28.827Z,85.8290
2024-05-09T00:09:31.022Z,85.8873
2024-05-09T00:10:36.970Z,86.0348
2024-05-09T00:11:34.145Z,86.0119
2024-05-09T00:12:36.326Z,86.1154
2024-05-09T00:13:38.506Z,86.2377
2024-05-09T00:14:40.748Z,86.3004
2024-05-09T00:15:42.905Z,86.3509
2024-05-09T00:16:45.086Z,86.3529
2024-05-09T00:17:47.417Z,86.4725
2024-05-09T00:18:47.467Z,86.5582
2024-05-09T00:19:48.991Z,86.5215
2024-05-09T00:20:49.789Z,86.4787
2024-05-09T00:21:49.574Z,86.4761
2024-05-09T00:22:51.776Z,86.7020
2024-05-09T00:23:52.351Z,86.7892
2024-05-09T00:24:53.238Z,86.6355
2024-05-09T00:25:55.427Z,86.7370
2024-05-09T00:26:57.629Z,86.8354
2024-05-09T00:27:59.820Z,86.7792
2024-05-09T00:29:02.219Z,86.9071
2024-05-09T00:30:04.207Z,86.8233
2024-05-09T00:31:04.175Z,86.9534
2024-05-09T00:32:06.414Z,86.9333
2024-05-09T00:33:07.859Z,86.8832
2024-05-09T00:34:07.094Z,86.9266
2024-05-09T00:35:07.055Z,86.8642
2024-05-09T00:36:09.346Z,87.0047
2024-05-09T00:37:11.553Z,87.0766
2024-05-09T00:38:13.780Z,87.1277
2024-05-09T00:39:15.987Z,87.1159
2024-05-09T00:40:26.568Z,87.0112
2024-05-09T00:41:19.928Z,87.1611
2024-05-09T00:42:19.844Z,87.2646
2024-05-09T00:43:22.070Z,87.1721
2024-05-09T00:44:24.518Z,87.3148
2024-05-09T00:45:24.503Z,87.2558
2024-05-09T00:46:24.487Z,87.2415
2024-05-09T00:47:26.886Z,87.3479
2024-05-09T00:48:27.188Z,87.2874
2024-05-09T00:49:28.520Z,87.2368
2024-05-09T00:50:35.230Z,87.3265
2024-05-09T00:51:29.411Z,87.3852
2024-05-09T00:52:31.612Z,87.1833
2024-05-09T00:53:33.950Z,87.1585
2024-05-09T00:54:33.938Z,87.1131
2024-05-09T00:55:36.150Z,87.2588
2024-05-09T00:56:36.283Z,87.2878
2024-05-09T00:57:38.580Z,87.2739
2024-05-09T00:58:40.800Z,87.3930
2024-05-09T00:59:43.018Z,87.2965
2024-05-09T01:00:45.422Z,87.2891
2024-05-09T01:01:48.407Z,87.2176
2024-05-09T01:02:48.357Z,87.2601
2024-05-09T01:03:51.672Z,87.2048
2024-05-09T01:04:51.996Z,87.1337
2024-05-09T01:05:52.032Z,87.2627
2024-05-09T01:06:52.006Z,87.3303
2024-05-09T01:07:54.158Z,87.2594
2024-05-09T01:08:56.437Z,87.1983
2024-05-09T01:09:58.776Z,87.2050
2024-05-09T01:11:01.386Z,87.1320
2024-05-09T01:12:02.523Z,87.0986
2024-05-09T01:13:02.868Z,87.0604
2024-05-09T01:14:05.202Z,87.1250
2024-05-09T01:15:07.521Z,87.0746
2024-05-09T01:16:12.821Z,87.0953
2024-05-09T01:17:11.307Z,87.0481
2024-05-09T01:18:12.477Z,87.0967
2024-05-09T01:19:13.789Z,87.1532
2024-05-09T01:20:20.052Z,87.0862
2024-05-09T01:21:14.968Z,87.0504
2024-05-09T01:22:14.927Z,87.1146
2024-05-09T01:23:17.224Z,87.1055
2024-05-09T01:24:17.926Z,86.9712
2024-05-09T01:25:20.265Z,86.9142
2024-05-09T01:26:22.387Z,86.9521
2024-05-09T01:27:24.724Z,87.0164
2024-05-09T01:28:26.792Z,87.0304
2024-05-09T01:29:29.166Z,87.1081
2024-05-09T01:30:35.111Z,87.1271
2024-05-09T01:31:32.222Z,87.1360
2024-05-09T01:32:34.649Z,87.1322
2024-05-09T01:33:34.724Z,87.1246
2024-05-09T01:34:34.622Z,87.1782
2024-05-09T01:35:36.962Z,87.1750
2024-05-09T01:36:36.766Z,87.1563
2024-05-09T01:37:39.857Z,87.0230
2024-05-09T01:38:39.624Z,87.0588
2024-05-09T01:39:41.704Z,87.1143
2024-05-09T01:40:43.937Z,87.2010
2024-05-09T01:41:46.181Z,87.2555
2024-05-09T01:42:48.429Z,87.1720
2024-05-09T01:43:50.604Z,87.1227
2024-05-09T01:44:52.760Z,87.1733
2024-05-09T01:45:54.926Z,87.2282
2024-05-09T01:46:57.247Z,87.1759
2024-05-09T01:47:59.741Z,87.1128
2024-05-09T01:48:59.833Z,87.1719
2024-05-09T01:49:59.745Z,87.0981
2024-05-09T01:51:01.949Z,87.0639
2024-05-09T01:52:01.936Z,87.1594
2024-05-09T01:53:04.161Z,87.2911
2024-05-09T01:54:06.464Z,87.3091
2024-05-09T01:55:08.554Z,87.4095
2024-05-09T01:56:10.795Z,87.3665
2024-05-09T01:57:12.847Z,87.4569
2024-05-09T01:58:15.110Z,87.3368
2024-05-09T01:59:17.252Z,87.2035
2024-05-09T02:00:30.157Z,87.3300
2024-05-09T02:01:20.303Z,87.2784
2024-05-09T02:02:22.627Z,87.3658
2024-05-09T02:03:25.038Z,87.3711
2024-05-09T02:04:25.051Z,87.3207
2024-05-09T02:05:25.029Z,87.2399
2024-05-09T02:06:27.099Z,87.2716
2024-05-09T02:07:29.190Z,87.4052
2024-05-09T02:08:31.490Z,87.4049
2024-05-09T02:09:31.533Z,87.3513
2024-05-09T02:10:33.875Z,87.3939
2024-05-09T02:11:33.996Z,87.3694
2024-05-09T02:12:33.877Z,87.4387
2024-05-09T02:13:33.740Z,87.4717
2024-05-09T02:14:36.054Z,87.4939
2024-05-09T02:15:37.022Z,87.4457
2024-05-09T02:16:39.374Z,87.3493
2024-05-09T02:17:40.511Z,87.3209
2024-05-09T02:18:40.586Z,87.3045
2024-05-09T02:19:41.430Z,87.3429
2024-05-09T02:20:44.148Z,87.2044
2024-05-09T02:21:44.121Z,87.0835
2024-05-09T02:22:46.386Z,87.0625
2024-05-09T02:23:46.372Z,87.1219
2024-05-09T02:24:48.540Z,86.9895
2024-05-09T02:25:50.738Z,87.0173
2024-05-09T02:26:52.888Z,87.0098
2024-05-09T02:27:55.056Z,87.0524
2024-05-09T02:28:57.323Z,87.1749
2024-05-09T02:29:59.492Z,87.1825
2024-05-09T02:31:01.698Z,87.1238
2024-05-09T02:32:02.977Z,87.1327
2024-05-09T02:33:03.463Z,87.2057
2024-05-09T02:34:03.420Z,87.1751
2024-05-09T02:35:03.423Z,87.2276
2024-05-09T02:36:03.365Z,87.1894
2024-05-09T02:37:05.734Z,87.2710
2024-05-09T02:38:06.692Z,87.1842
2024-05-09T02:39:06.756Z,87.1819
2024-05-09T02:40:14.273Z,87.2325
2024-05-09T02:41:10.083Z,87.2086
2024-05-09T02:42:12.333Z,87.1837
2024-05-09T02:43:14.566Z,87.2447
2024-05-09T02:44:16.896Z,87.1790
2024-05-09T02:45:16.807Z,87.1166
2024-05-09T02:46:19.172Z,87.3046
2024-05-09T02:47:21.757Z,87.3353
2024-05-09T02:48:21.821Z,87.4467
2024-05-09T02:49:24.221Z,87.3789
2024-05-09T02:50:33.060Z,87.4744
2024-05-09T02:51:26.870Z,87.5505
2024-05-09T02:52:27.293Z,87.5847
2024-05-09T02:53:27.157Z,87.4323
2024-05-09T02:54:29.323Z,87.4405
2024-05-09T02:55:31.605Z,87.4308
2024-05-09T02:56:34.045Z,87.5332
2024-05-09T02:57:36.174Z,87.6151
2024-05-09T02:58:38.440Z,87.6786
2024-05-09T02:59:40.730Z,87.5933
2024-05-09T03:00:42.831Z,87.5870
2024-05-09T03:01:42.492Z,87.7242
2024-05-09T03:02:42.735Z,87.8770
2024-05-09T03:03:42.730Z,87.8246
2024-05-09T03:04:42.759Z,87.7654
2024-05-09T03:05:45.394Z,87.7516
2024-05-09T03:06:45.457Z,87.9208
2024-05-09T03:07:46.409Z,87.7665
2024-05-09T03:08:46.270Z,87.9280
2024-05-09T03:09:48.389Z,87.7890
2024-05-09T03:10:50.584Z,87.8652
2024-05-09T03:11:52.981Z,87.8029
2024-05-09T03:12:52.928Z,87.7841
2024-05-09T03:13:55.099Z,87.7739
2024-05-09T03:14:57.200Z,87.7887
2024-05-09T03:15:59.537Z,87.8540
2024-05-09T03:17:01.915Z,87.9342
2024-05-09T03:18:02.142Z,87.9708
2024-05-09T03:19:02.465Z,87.9387
2024-05-09T03:20:05.110Z,87.9471
2024-05-09T03:21:04.355Z,88.0423
2024-05-09T03:22:06.660Z,87.9906
2024-05-09T03:23:06.795Z,87.9714
2024-05-09T03:24:09.167Z,87.8918
2024-05-09T03:25:11.351Z,87.8622
2024-05-09T03:26:13.665Z,88.0078
2024-05-09T03:27:15.908Z,88.1138
2024-05-09T03:28:15.763Z,88.2520
2024-05-09T03:29:18.078Z,88.2731
2024-05-09T03:30:29.289Z,88.2222
2024-05-09T03:31:18.947Z,88.2147
2024-05-09T03:32:21.488Z,88.2370
2024-05-09T03:33:21.835Z,88.1525
2024-05-09T03:34:22.058Z,88.2066
2024-05-09T03:35:25.005Z,88.2750
2024-05-09T03:36:24.993Z,88.3675
2024-05-09T03:37:25.464Z,88.4292
2024-05-09T03:38:26.242Z,88.5263
2024-05-09T03:39:28.530Z,88.4793
2024-05-09T03:40:31.401Z,88.5132
2024-05-09T03:41:31.480Z,88.4536
2024-05-09T03:42:31.932Z,88.4608
2024-05-09T03:43:31.822Z,88.4675
2024-05-09T03:44:34.217Z,88.3562
2024-05-09T03:45:34.191Z,88.4756
2024-05-09T03:46:36.417Z,88.4997
2024-05-09T03:47:38.848Z,88.3898
2024-05-09T03:48:38.968Z,88.4542
2024-05-09T03:49:41.206Z,88.4473
2024-05-09T03:50:43.610Z,88.4791
2024-05-09T03:51:44.082Z,88.5557
2024-05-09T03:52:44.024Z,88.4722
2024-05-09T03:53:44.273Z,88.5861
2024-05-09T03:54:46.434Z,88.6556
2024-05-09T03:55:48.620Z,88.5930
2024-05-09T03:56:50.938Z,88.5530
2024-05-09T03:57:53.271Z,88.5390
2024-05-09T03:58:55.592Z,88.6448
2024-05-09T03:59:57.744Z,88.7013
2024-05-09T04:01:00.963Z,88.7956
2024-05-09T04:02:01.995Z,88.6575
2024-05-09T04:03:02.330Z,88.6107
2024-05-09T04:04:02.510Z,88.5389
2024-05-09T04:05:04.893Z,88.4948
2024-05-09T04:06:05.411Z,88.4761
2024-05-09T04:07:05.273Z,88.4683
2024-05-09T04:08:07.710Z,88.4188
2024-05-09T04:09:07.639Z,88.3858
2024-05-09T04:10:16.994Z,88.2747
2024-05-09T04:11:10.992Z,88.2824
2024-05-09T04:12:12.023Z,88.3347
2024-05-09T04:13:13.015Z,88.2670
2024-05-09T04:14:15.293Z,88.2402
2024-05-09T04:15:15.580Z,88.2250
2024-05-09T04:16:17.755Z,88.1277
2024-05-09T04:17:20.595Z,88.2086
2024-05-09T04:18:22.442Z,88.2539
2024-05-09T04:19:24.640Z,88.2789
2024-05-09T04:20:33.909Z,88.2040
2024-05-09T04:21:25.563Z,88.0337
2024-05-09T04:22:27.718Z,87.9127
2024-05-09T04:23:30.009Z,87.7069
2024-05-09T04:24:29.998Z,87.7837
2024-05-09T04:25:32.275Z,87.8465
2024-05-09T04:26:34.627Z,87.9572
2024-05-09T04:27:37.832Z,87.9625
2024-05-09T04:28:37.707Z,87.9460
2024-05-09T04:29:40.028Z,87.9727
2024-05-09T04:30:42.684Z,87.9345
2024-05-09T04:31:43.022Z,87.9978
2024-05-09T04:32:45.427Z,88.0262
2024-05-09T04:33:46.732Z,87.9979
2024-05-09T04:34:46.752Z,87.9536
2024-05-09T04:35:48.999Z,87.9648
2024-05-09T04:36:51.180Z,87.8671
2024-05-09T04:37:51.469Z,88.0237
2024-05-09T04:38:53.677Z,88.0939
2024-05-09T04:39:55.920Z,87.9821
2024-05-09T04:40:58.103Z,87.9561
2024-05-09T04:42:00.293Z,87.7983
2024-05-09T04:43:02.382Z,87.9374
2024-05-09T04:44:04.548Z,87.8934
2024-05-09T04:45:06.692Z,87.8899
2024-05-09T04:46:08.902Z,87.8413
2024-05-09T04:47:11.986Z,87.8573
2024-05-09T04:48:12.177Z,88.0112
2024-05-09T04:49:12.106Z,87.7871
2024-05-09T04:50:21.182Z,87.6882
2024-05-09T04:51:15.381Z,87.7621
2024-05-09T04:52:18.376Z,87.7741
2024-05-09T04:53:18.428Z,87.7818
2024-05-09T04:54:26.209Z,87.7427
2024-05-09T04:55:19.449Z,87.6732
2024-05-09T04:56:21.644Z,87.7975
2024-05-09T04:57:23.880Z,87.7945
2024-05-09T04:58:25.980Z,87.8327
2024-05-09T04:59:28.328Z,87.7740
2024-05-09T05:00:35.035Z,87.9025
2024-05-09T05:01:29.292Z,87.7907
2024-05-09T05:02:31.616Z,87.7241
2024-05-09T05:03:34.036Z,87.8372
2024-05-09T05:04:33.998Z,87.8657
2024-05-09T05:05:36.266Z,87.8509
2024-05-09T05:06:38.544Z,87.7538
2024-05-09T05:07:40.648Z,87.4657
2024-05-09T05:08:42.863Z,87.5117
2024-05-09T05:09:45.024Z,87.6803
2024-05-09T05:10:47.945Z,87.5763
2024-05-09T05:11:49.572Z,87.4792
2024-05-09T05:12:51.521Z,87.5195
2024-05-09T05:13:52.475Z,87.6323
2024-05-09T05:14:54.957Z,87.8614
2024-05-09T05:15:54.860Z,87.8298
2024-05-09T05:16:55.772Z,87.9077
2024-05-09T05:17:55.884Z,87.8019
2024-05-09T05:18:56.130Z,87.8060
2024-05-09T05:19:57.250Z,87.8240
2024-05-09T05:20:57.397Z,87.7877
2024-05-09T05:21:57.448Z,87.8163
2024-05-09T05:22:58.256Z,87.7401
2024-05-09T05:24:00.560Z,87.6817
2024-05-09T05:25:02.877Z,87.6443
2024-05-09T05:26:03.305Z,87.5339
2024-05-09T05:27:04.240Z,87.5301
2024-05-09T05:28:06.568Z,87.5344
2024-05-09T05:29:08.905Z,87.6475
2024-05-09T05:30:17.628Z,87.7357
2024-05-09T05:31:13.097Z,87.8012
2024-05-09T05:32:13.194Z,87.7531
2024-05-09T05:33:13.582Z,87.8394
2024-05-09T05:34:14.123Z,87.9849
2024-05-09T05:35:16.401Z,88.0112
2024-05-09T05:36:16.346Z,88.0798
2024-05-09T05:37:18.505Z,88.1632
2024-05-09T05:38:24.827Z,88.1690
2024-05-09T05:39:21.866Z,88.2037
2024-05-09T05:40:32.356Z,88.2017
2024-05-09T05:41:25.452Z,88.2032
2024-05-09T05:42:25.753Z,88.0587
2024-05-09T05:43:28.035Z,87.8448
2024-05-09T05:44:30.432Z,87.8936
2024-05-09T05:45:30.358Z,87.9503
2024-05-09T05:46:32.683Z,87.7776
2024-05-09T05:47:35.218Z,87.6921
2024-05-09T05:48:35.331Z,87.8084
2024-05-09T05:49:37.820Z,87.9085
2024-05-09T05:50:38.779Z,88.0345
2024-05-09T05:51:38.954Z,88.0089
2024-05-09T05:52:41.245Z,88.1116
2024-05-09T05:53:42.288Z,88.1854
2024-05-09T05:54:42.282Z,88.2260
2024-05-09T05:55:44.718Z,88.2378
2024-05-09T05:56:44.996Z,88.0507
2024-05-09T05:57:45.135Z,87.7674
2024-05-09T05:58:47.378Z,87.7820
2024-05-09T05:59:49.677Z,87.7698
2024-05-09T06:00:52.413Z,87.8187
2024-05-09T06:01:52.365Z,87.7418
2024-05-09T06:02:52.462Z,87.8375
2024-05-09T06:03:53.484Z,87.9531
2024-05-09T06:04:54.046Z,87.9265
2024-05-09T06:05:54.120Z,87.8698
2024-05-09T06:06:56.353Z,87.8306
2024-05-09T06:07:58.698Z,87.8437
2024-05-09T06:08:58.982Z,87.7901
2024-05-09T06:10:01.280Z,87.7725
2024-05-09T06:11:03.751Z,87.7415
2024-05-09T06:12:03.831Z,87.6144
2024-05-09T06:13:05.365Z,87.4336
2024-05-09T06:14:05.282Z,87.3975
2024-05-09T06:15:07.649Z,87.3723
2024-05-09T06:16:09.959Z,87.1667
2024-05-09T06:17:12.399Z,86.9433
2024-05-09T06:18:13.014Z,86.9782
2024-05-09T06:19:13.218Z,86.9244
2024-05-09T06:20:20.560Z,86.8306
2024-05-09T06:21:15.482Z,86.6239
2024-05-09T06:22:15.960Z,86.4836
2024-05-09T06:23:18.214Z,86.4893
2024-05-09T06:24:18.598Z,86.3739
2024-05-09T06:25:20.839Z,86.1970
2024-05-09T06:26:23.223Z,86.0003
2024-05-09T06:27:23.963Z,85.6392
2024-05-09T06:28:23.788Z,85.1503
2024-05-09T06:29:26.144Z,85.1401
2024-05-09T06:30:34.902Z,85.2360
2024-05-09T06:31:27.010Z,84.9967
2024-05-09T06:32:29.321Z,84.9889
2024-05-09T06:33:29.585Z,84.8949
2024-05-09T06:34:29.783Z,84.6112
2024-05-09T06:35:29.858Z,84.6900
2024-05-09T06:36:30.402Z,84.5881
2024-05-09T06:37:30.303Z,84.3307
2024-05-09T06:38:32.591Z,84.3908
2024-05-09T06:39:32.543Z,84.0510
2024-05-09T06:40:38.323Z,83.9078
2024-05-09T06:41:35.849Z,83.8277
2024-05-09T06:42:38.070Z,84.0204
2024-05-09T06:43:40.131Z,84.0259
2024-05-09T06:44:42.291Z,83.9438
2024-05-09T06:45:44.481Z,83.8766
2024-05-09T06:46:46.868Z,83.6910
2024-05-09T06:47:46.954Z,83.5913
2024-05-09T06:48:50.503Z,83.3844
2024-05-09T06:49:50.623Z,83.1418
2024-05-09T06:50:50.726Z,83.2497
2024-05-09T06:51:50.751Z,82.6833
2024-05-09T06:52:52.915Z,82.3631
2024-05-09T06:53:55.067Z,82.0857
2024-05-09T06:54:57.356Z,81.9221
2024-05-09T06:55:59.630Z,82.1975
2024-05-09T06:57:01.932Z,82.2579
2024-05-09T06:58:03.993Z,82.1698
2024-05-09T06:59:06.325Z,82.1462
2024-05-09T07:00:15.466Z,81.9996
2024-05-09T07:01:09.600Z,82.1806
2024-05-09T07:02:09.635Z,82.3797
2024-05-09T07:03:10.078Z,82.7788
2024-05-09T07:04:11.303Z,82.9212
2024-05-09T07:05:11.627Z,82.8470
2024-05-09T07:06:11.656Z,82.9857
2024-05-09T07:07:14.045Z,82.9208
2024-05-09T07:08:16.554Z,82.7732
2024-05-09T07:09:16.789Z,82.8708
2024-05-09T07:10:22.143Z,82.7229
2024-05-09T07:11:18.025Z,82.5914
2024-05-09T07:12:19.090Z,82.2732
2024-05-09T07:13:19.107Z,82.1053
2024-05-09T07:14:21.552Z,82.2253
2024-05-09T07:15:21.795Z,81.9333
2024-05-09T07:16:21.800Z,81.8347
2024-05-09T07:17:24.240Z,81.9039
2024-05-09T07:18:24.504Z,81.7799
2024-05-09T07:19:25.012Z,81.9057
2024-05-09T07:20:32.491Z,81.8684
2024-05-09T07:21:26.093Z,81.8221
2024-05-09T07:22:25.976Z,81.5654
2024-05-09T07:23:26.044Z,81.2997
2024-05-09T07:24:26.042Z,80.9077
2024-05-09T07:25:28.369Z,81.2495
2024-05-09T07:26:28.329Z,81.2779
2024-05-09T07:27:29.916Z,81.5470
2024-05-09T07:28:30.073Z,81.0625
2024-05-09T07:29:34.714Z,81.1438
2024-05-09T07:30:34.765Z,80.9560
2024-05-09T07:31:35.162Z,81.4212
2024-05-09T07:32:37.567Z,81.3003
2024-05-09T07:33:38.570Z,81.0766
2024-05-09T07:34:38.634Z,81.2979
2024-05-09T07:35:38.839Z,81.5689
2024-05-09T07:36:39.886Z,81.2820
2024-05-09T07:37:42.215Z,81.0636
2024-05-09T07:38:42.242Z,81.1442
2024-05-09T07:39:42.552Z,81.1103
2024-05-09T07:40:42.575Z,81.1531
2024-05-09T07:41:44.912Z,81.1094
2024-05-09T07:42:44.995Z,81.4566
2024-05-09T07:43:47.329Z,81.3258
2024-05-09T07:44:49.573Z,81.1824
2024-05-09T07:45:54.468Z,81.2760
2024-05-09T07:48:13.727Z,80.9134
2024-05-09T07:50:34.746Z,80.5794
2024-05-09T07:53:22.002Z,80.3444
2024-05-09T07:54:01.395Z,80.0863
2024-05-09T07:55:02.035Z,80.4567
2024-05-09T07:56:02.171Z,80.1107
2024-05-09T07:57:03.385Z,80.1038
2024-05-09T07:58:03.485Z,80.3829
2024-05-09T07:59:05.812Z,79.8508
2024-05-09T08:00:06.680Z,80.0463
2024-05-09T08:01:07.043Z,79.9338
2024-05-09T08:02:07.086Z,79.8330
2024-05-09T08:03:07.013Z,79.9177
2024-05-09T08:04:09.274Z,79.3514
2024-05-09T08:05:09.388Z,78.7486
2024-05-09T08:06:10.390Z,79.1036
2024-05-09T08:07:12.697Z,78.9688
2024-05-09T08:08:14.997Z,78.9053
2024-05-09T08:09:21.013Z,78.3967
2024-05-09T08:10:22.107Z,77.7158
2024-05-09T08:11:18.310Z,77.4443
2024-05-09T08:12:20.612Z,77.2402
2024-05-09T08:13:23.135Z,77.5002
2024-05-09T08:14:23.196Z,77.9809
2024-05-09T08:15:25.486Z,77.7151
2024-05-09T08:16:25.578Z,77.4378
2024-05-09T08:17:25.569Z,77.8346
2024-05-09T08:18:27.990Z,77.8168
2024-05-09T08:19:28.085Z,77.7500
2024-05-09T08:20:33.720Z,77.8565
2024-05-09T08:21:31.482Z,78.1278
2024-05-09T08:22:32.439Z,78.0966
2024-05-09T08:23:34.700Z,77.9249
2024-05-09T08:24:36.984Z,78.4916
2024-05-09T08:25:39.196Z,78.6532
2024-05-09T08:26:41.466Z,78.8233
2024-05-09T08:27:42.555Z,78.6723
2024-05-09T08:28:42.416Z,78.5797
2024-05-09T08:29:44.713Z,78.6735
2024-05-09T08:30:44.840Z,78.8631
2024-05-09T08:31:45.839Z,78.9184
2024-05-09T08:32:48.353Z,79.2261
2024-05-09T08:33:48.668Z,79.4123
2024-05-09T08:34:48.721Z,78.9812
2024-05-09T08:35:50.024Z,78.7695
2024-05-09T08:36:52.376Z,78.9724
2024-05-09T08:37:53.069Z,78.8805
2024-05-09T08:38:53.062Z,78.7162
2024-05-09T08:39:53.204Z,78.9381
2024-05-09T08:40:55.593Z,79.1122
2024-05-09T08:41:55.650Z,78.7344
2024-05-09T08:42:57.874Z,79.0249
2024-05-09T08:44:00.121Z,78.8124
2024-05-09T08:45:02.303Z,78.6010
2024-05-09T08:46:02.393Z,78.3327
2024-05-09T08:47:02.981Z,77.7597
2024-05-09T08:48:05.421Z,77.7934
2024-05-09T08:49:06.058Z,77.5608
2024-05-09T08:50:08.570Z,77.4790
2024-05-09T08:51:06.583Z,77.0191
2024-05-09T08:52:07.546Z,77.3203
2024-05-09T08:53:07.856Z,77.5095
2024-05-09T08:54:07.937Z,77.5200
2024-05-09T08:55:10.363Z,77.1953
2024-05-09T08:56:10.502Z,77.4280
2024-05-09T08:57:12.721Z,77.1935
2024-05-09T08:58:15.353Z,77.3928
2024-05-09T08:59:16.168Z,77.3410
2024-05-09T09:00:29.049Z,77.0139
2024-05-09T09:01:19.702Z,76.9792
2024-05-09T09:02:21.293Z,77.0604
2024-05-09T09:03:21.850Z,76.6835
2024-05-09T09:04:24.259Z,76.7481
2024-05-09T09:05:24.426Z,76.7998
2024-05-09T09:06:24.357Z,76.9196
2024-05-09T09:07:26.784Z,76.9044
2024-05-09T09:08:27.683Z,76.8166
2024-05-09T09:09:27.996Z,76.8797
2024-05-09T09:10:32.360Z,76.9762
2024-05-09T09:11:30.827Z,76.8205
2024-05-09T09:12:33.107Z,77.0267
2024-05-09T09:13:35.350Z,76.8855
2024-05-09T09:14:37.596Z,76.8842
2024-05-09T09:15:37.664Z,76.7710
2024-05-09T09:16:39.938Z,76.3027
2024-05-09T09:17:42.387Z,76.1859
2024-05-09T09:18:42.644Z,76.1422
2024-05-09T09:19:42.584Z,75.5854
2024-05-09T09:20:45.005Z,75.6927
2024-05-09T09:21:45.060Z,75.8074
2024-05-09T09:22:45.122Z,76.0355
2024-05-09T09:23:47.527Z,76.2033
2024-05-09T09:24:49.724Z,75.9227
2024-05-09T09:25:50.863Z,76.0875
2024-05-09T09:26:51.713Z,75.9368
2024-05-09T09:27:53.991Z,75.6973
2024-05-09T09:28:54.037Z,75.8287
2024-05-09T09:29:56.322Z,75.4982
2024-05-09T09:30:56.238Z,75.5294
2024-05-09T09:31:58.466Z,75.6117
2024-05-09T09:33:01.009Z,74.8818
2024-05-09T09:34:01.283Z,74.7856
2024-05-09T09:35:01.395Z,75.3225
2024-05-09T09:36:01.531Z,75.9503
2024-05-09T09:37:03.823Z,76.1929
2024-05-09T09:38:03.823Z,75.9928
2024-05-09T09:39:06.062Z,75.9532
2024-05-09T09:40:08.949Z,76.1033
2024-05-09T09:41:08.895Z,76.3328
2024-05-09T09:42:09.804Z,76.3461
2024-05-09T09:43:12.212Z,75.6076
2024-05-09T09:44:12.279Z,75.2761
2024-05-09T09:45:14.632Z,75.2685
2024-05-09T09:46:17.121Z,75.4806
2024-05-09T09:47:17.373Z,75.7529
2024-05-09T09:48:19.748Z,75.7027
2024-05-09T09:49:21.538Z,75.0550
2024-05-09T09:50:27.706Z,74.6765
2024-05-09T09:51:22.620Z,75.0862
2024-05-09T09:52:23.028Z,75.3651
2024-05-09T09:53:22.931Z,74.7839
2024-05-09T09:54:25.231Z,74.7150
2024-05-09T09:55:26.062Z,74.4599
2024-05-09T09:56:25.959Z,74.0931
2024-05-09T09:57:26.221Z,73.8081
2024-05-09T09:58:28.563Z,73.0571
2024-05-09T09:59:28.524Z,72.2340
2024-05-09T10:00:33.290Z,71.8564
2024-05-09T10:01:31.911Z,71.8502
2024-05-09T10:02:32.172Z,72.3312
2024-05-09T10:03:32.342Z,71.8240
2024-05-09T10:04:33.417Z,70.1549
2024-05-09T10:05:33.717Z,70.3850
2024-05-09T10:06:33.755Z,70.3117
2024-05-09T10:07:35.924Z,69.8310
2024-05-09T10:08:38.038Z,69.0653
2024-05-09T10:09:40.283Z,68.3804
2024-05-09T10:10:42.690Z,68.8462
2024-05-09T10:12:44.854Z,67.8154
2024-05-09T10:13:47.071Z,67.0976
2024-05-09T10:14:49.367Z,67.8931
2024-05-09T10:15:52.146Z,68.0294
2024-05-09T10:16:52.295Z,68.6705
2024-05-09T10:17:54.712Z,69.5069
2024-05-09T10:18:54.822Z,69.5982
2024-05-09T10:19:54.864Z,69.4832
2024-05-09T10:20:54.932Z,70.5066
2024-05-09T10:21:57.258Z,70.4641
2024-05-09T10:22:57.328Z,70.2676
2024-05-09T10:23:57.645Z,70.6826
2024-05-09T10:25:01.505Z,70.2565
2024-05-09T10:26:03.790Z,69.6742
2024-05-09T10:27:03.616Z,69.0517
2024-05-09T10:28:04.135Z,69.0560
2024-05-09T10:29:06.439Z,69.2105
2024-05-09T10:30:14.412Z,69.0580
2024-05-09T10:31:09.701Z,68.6491
2024-05-09T10:32:11.920Z,69.0328
2024-05-09T10:33:13.008Z,69.1643
2024-05-09T10:34:13.172Z,69.4020
2024-05-09T10:35:13.146Z,69.1427
2024-05-09T10:36:13.319Z,68.7303
2024-05-09T10:37:15.695Z,69.0036
2024-05-09T10:38:15.637Z,67.8040
2024-05-09T10:39:16.014Z,66.4910
2024-05-09T10:40:25.778Z,67.2474
2024-05-09T10:41:19.112Z,68.2691
2024-05-09T10:42:21.311Z,67.8125
2024-05-09T10:43:21.336Z,67.6893
2024-05-09T10:44:21.153Z,68.4794
2024-05-09T10:45:23.487Z,68.6821
2024-05-09T10:46:25.759Z,68.7305
2024-05-09T10:47:28.199Z,69.3217
2024-05-09T10:48:29.323Z,68.8418
2024-05-09T10:49:29.267Z,68.4603
2024-05-09T10:50:34.238Z,69.1936
2024-05-09T10:51:33.226Z,69.3950
2024-05-09T10:52:35.519Z,68.8190
2024-05-09T10:53:37.859Z,68.6563
2024-05-09T10:54:37.894Z,68.0800
2024-05-09T10:55:37.881Z,67.3299
2024-05-09T10:56:37.768Z,66.3617
2024-05-09T10:57:39.986Z,66.9990
2024-05-09T10:58:42.401Z,67.7594
2024-05-09T10:59:42.371Z,68.2867
2024-05-09T11:00:44.794Z,67.5307
2024-05-09T11:01:45.018Z,67.7059
2024-05-09T11:02:45.053Z,67.4834
2024-05-09T11:03:47.572Z,67.2843
2024-05-09T11:04:47.951Z,67.1812
2024-05-09T11:05:47.997Z,66.7770
2024-05-09T11:06:48.073Z,67.2419
2024-05-09T11:07:50.570Z,66.8213
2024-05-09T11:08:50.486Z,66.3774
2024-05-09T11:09:52.903Z,66.3993
2024-05-09T11:10:53.039Z,66.5656
2024-05-09T11:11:53.226Z,65.6495
2024-05-09T11:12:53.293Z,65.3193
2024-05-09T11:13:55.546Z,64.4085
2024-05-09T11:14:57.860Z,65.0744
2024-05-09T11:16:00.179Z,65.3576
2024-05-09T11:17:00.276Z,64.3704
2024-05-09T11:18:02.782Z,65.2962
2024-05-09T11:19:04.916Z,65.2868
2024-05-09T11:20:10.773Z,63.9924
2024-05-09T11:21:06.106Z,63.2205
2024-05-09T11:22:08.570Z,63.1659
2024-05-09T11:23:08.578Z,63.4214
2024-05-09T11:24:11.482Z,61.9748
2024-05-09T11:25:11.853Z,61.7276
2024-05-09T11:26:12.590Z,62.1455
2024-05-09T11:27:12.522Z,62.8126
2024-05-09T11:28:15.046Z,62.4252
2024-05-09T11:29:17.935Z,63.2308
2024-05-09T11:30:24.190Z,63.5125
2024-05-09T11:31:18.255Z,63.5429
2024-05-09T11:32:18.302Z,63.8190
2024-05-09T11:33:19.220Z,63.6719
2024-05-09T11:34:19.373Z,63.8964
2024-05-09T11:35:19.637Z,63.8813
2024-05-09T11:36:19.555Z,64.0980
2024-05-09T11:37:19.635Z,63.4170
2024-05-09T11:38:19.584Z,63.5529
2024-05-09T11:39:21.779Z,63.7934
2024-05-09T11:40:26.035Z,63.2306
2024-05-09T11:41:25.076Z,63.4477
2024-05-09T11:42:25.206Z,62.8292
2024-05-09T11:43:25.475Z,62.3815
2024-05-09T11:44:25.341Z,61.9478
2024-05-09T11:45:27.554Z,61.9649
2024-05-09T11:46:29.703Z,61.7905
2024-05-09T11:47:32.075Z,61.1514
2024-05-09T11:48:32.331Z,62.1060
2024-05-09T11:49:32.613Z,63.6384
2024-05-09T11:50:35.498Z,63.5092
2024-05-09T11:51:33.432Z,63.5520
2024-05-09T11:52:35.665Z,62.8893
2024-05-09T11:53:37.818Z,62.7840
2024-05-09T11:54:40.114Z,63.0788
2024-05-09T11:55:42.284Z,63.3046
2024-05-09T11:56:44.513Z,63.9208
2024-05-09T11:57:46.848Z,64.8280
2024-05-09T11:58:47.136Z,65.2812
2024-05-09T11:59:50.061Z,65.7669
2024-05-09T12:00:50.044Z,66.2616
2024-05-09T12:01:50.295Z,66.0484
2024-05-09T12:02:50.318Z,65.8793
2024-05-09T12:03:52.743Z,66.4357
2024-05-09T12:04:52.814Z,66.5121
2024-05-09T12:05:55.060Z,65.9543
2024-05-09T12:06:57.326Z,65.3541
2024-05-09T12:07:59.450Z,65.4159
2024-05-09T12:09:01.622Z,65.3925
2024-05-09T12:10:06.080Z,65.0247
2024-05-09T12:11:05.753Z,63.5938
2024-05-09T12:12:08.038Z,63.2885
2024-05-09T12:13:10.400Z,63.2823
2024-05-09T12:14:12.676Z,61.9263
2024-05-09T12:15:14.996Z,62.5305
2024-05-09T12:16:17.301Z,62.8207
2024-05-09T12:17:19.609Z,63.3201
2024-05-09T12:18:21.801Z,64.1476
2024-05-09T12:19:24.049Z,63.3786
2024-05-09T12:20:34.727Z,62.9874
2024-05-09T12:21:27.285Z,64.1352
2024-05-09T12:22:29.455Z,63.1882
2024-05-09T12:23:31.641Z,62.4481
2024-05-09T12:24:33.872Z,62.4908
2024-05-09T12:25:36.970Z,62.1736
2024-05-09T12:26:39.133Z,61.1706